createdAt,value
2019-02-11T00:01:48.031Z,92569.81
2019-02-11T00:04:16.580Z,92567.66
2019-02-11T00:06:45.077Z,92579.86
2019-02-11T00:09:12.904Z,92581.88
2019-02-11T00:11:40.855Z,92588.52
2019-02-11T00:14:09.506Z,92594.28
2019-02-11T00:19:56.121Z,92592.59
2019-02-11T00:22:24.380Z,92586.27
2019-02-11T00:24:52.161Z,92605.16
2019-02-11T00:27:20.321Z,92610.33
2019-02-11T00:29:48.916Z,92618.11
2019-02-11T00:32:17.095Z,92622.91
2019-02-11T00:34:45.699Z,92625.03
2019-02-11T00:37:13.957Z,92628.44
2019-02-11T00:39:42.136Z,92652.98
2019-02-11T00:42:10.431Z,92646.78
2019-02-11T00:44:38.710Z,92659.40
2019-02-11T00:47:06.875Z,92634.25
2019-02-11T00:49:35.467Z,92636.73
2019-02-11T00:52:03.762Z,92638.81
2019-02-11T00:54:32.056Z,92642.16
2019-02-11T00:57:00.736Z,92631.68
2019-02-11T00:59:28.914Z,92630.08
2019-02-11T01:01:57.496Z,92647.36
2019-02-11T01:04:26.107Z,92638.13
2019-02-11T01:06:54.189Z,92643.04
2019-02-11T01:09:22.379Z,92633.76
2019-02-11T01:11:51.036Z,92631.23
2019-02-11T01:14:19.257Z,92630.41
2019-02-11T01:16:47.408Z,92636.27
2019-02-11T01:19:15.604Z,92641.33
2019-02-11T01:21:43.373Z,92641.77
2019-02-11T01:24:11.236Z,92643.03
2019-02-11T01:26:39.809Z,92639.64
2019-02-11T01:29:08.067Z,92648.04
2019-02-11T01:31:36.590Z,92643.84
2019-02-11T01:34:04.485Z,92657.73
2019-02-11T01:36:33.047Z,92661.53
2019-02-11T01:39:01.136Z,92662.31
2019-02-11T01:41:29.286Z,92681.69
2019-02-11T01:43:57.566Z,92686.29
2019-02-11T01:46:26.057Z,92693.83
2019-02-11T01:48:54.337Z,92682.55
2019-02-11T01:51:22.638Z,92687.61
2019-02-11T01:53:50.875Z,92692.95
2019-02-11T01:56:19.181Z,92692.08
2019-02-11T01:58:47.484Z,92690.38
2019-02-11T02:01:15.349Z,92677.69
2019-02-11T02:03:43.321Z,92688.62
2019-02-11T02:06:11.346Z,92699.16
2019-02-11T02:08:40.030Z,92695.42
2019-02-11T02:11:08.777Z,92697.47
2019-02-11T02:13:44.716Z,92707.17
2019-02-11T02:16:13.119Z,92708.83
2019-02-11T02:18:41.400Z,92699.60
2019-02-11T02:21:09.580Z,92702.12
2019-02-11T02:23:37.866Z,92696.29
2019-02-11T02:26:06.470Z,92682.41
2019-02-11T02:28:34.757Z,92687.46
2019-02-11T02:31:02.599Z,92693.34
2019-02-11T02:33:30.941Z,92688.33
2019-02-11T02:35:59.118Z,92674.02
2019-02-11T02:38:26.730Z,92695.02
2019-02-11T02:40:55.320Z,92707.22
2019-02-11T02:43:23.714Z,92702.66
2019-02-11T02:45:52.392Z,92705.52
2019-02-11T02:48:20.794Z,92700.91
2019-02-11T02:53:30.375Z,92713.58
2019-02-11T02:55:58.744Z,92719.03
2019-02-11T02:58:26.904Z,92722.37
2019-02-11T03:00:55.297Z,92717.38
2019-02-11T03:03:23.472Z,92726.16
2019-02-11T03:05:53.041Z,92730.38
2019-02-11T03:08:31.716Z,92732.00
2019-02-11T03:11:00.394Z,92728.25
2019-02-11T03:13:28.993Z,92729.95
2019-02-11T03:15:57.679Z,92740.05
2019-02-11T03:18:25.956Z,92734.18
2019-02-11T03:20:54.669Z,92742.28
2019-02-11T03:23:22.857Z,92738.88
2019-02-11T03:25:51.108Z,92743.06
2019-02-11T03:28:19.632Z,92754.91
2019-02-11T03:30:48.007Z,92764.97
2019-02-11T03:33:16.226Z,92767.53
2019-02-11T03:35:44.696Z,92775.94
2019-02-11T03:38:12.691Z,92781.86
2019-02-11T03:40:40.612Z,92782.26
2019-02-11T03:43:08.229Z,92787.30
2019-02-11T03:45:36.563Z,92787.30
2019-02-11T03:48:05.247Z,92798.70
2019-02-11T03:50:33.515Z,92803.33
2019-02-11T03:53:01.906Z,92802.20
2019-02-11T03:55:30.197Z,92810.73
2019-02-11T03:57:58.782Z,92814.55
2019-02-11T04:00:27.089Z,92823.82
2019-02-11T04:02:55.749Z,92841.10
2019-02-11T04:05:23.610Z,92849.93
2019-02-11T04:07:52.247Z,92834.78
2019-02-11T04:10:20.810Z,92853.33
2019-02-11T04:12:49.355Z,92856.72
2019-02-11T04:15:18.017Z,92866.34
2019-02-11T04:17:46.097Z,92870.59
2019-02-11T04:20:13.248Z,92871.83
2019-02-11T04:22:41.417Z,92870.55
2019-02-11T04:25:09.282Z,92889.92
2019-02-11T04:27:37.566Z,92887.80
2019-02-11T04:30:06.394Z,92895.80
2019-02-11T04:32:34.978Z,92901.25
2019-02-11T04:35:03.343Z,92897.89
2019-02-11T04:37:31.638Z,92913.51
2019-02-11T04:39:59.843Z,92921.05
2019-02-11T04:42:27.654Z,92916.00
2019-02-11T04:44:55.458Z,92926.52
2019-02-11T04:47:23.709Z,92923.17
2019-02-11T04:49:51.885Z,92928.62
2019-02-11T04:52:20.152Z,92929.05
2019-02-11T04:54:48.616Z,92927.79
2019-02-11T04:57:17.254Z,92940.41
2019-02-11T04:59:45.535Z,92945.06
2019-02-11T05:05:34.885Z,92944.19
2019-02-11T05:08:02.872Z,92951.77
2019-02-11T05:10:31.358Z,92960.17
2019-02-11T05:13:00.045Z,92954.26
2019-02-11T05:15:28.701Z,92964.35
2019-02-11T05:17:56.630Z,92965.19
2019-02-11T05:20:24.650Z,92965.65
2019-02-11T05:22:52.620Z,92973.22
2019-02-11T05:25:21.366Z,92981.27
2019-02-11T05:27:49.657Z,92977.05
2019-02-11T05:30:17.940Z,92988.83
2019-02-11T05:32:46.285Z,92991.36
2019-02-11T05:35:14.988Z,92985.91
2019-02-11T05:37:44.189Z,92988.44
2019-02-11T05:40:31.592Z,92994.31
2019-02-11T05:42:59.885Z,93004.01
2019-02-11T05:45:27.759Z,92998.96
2019-02-11T05:47:55.925Z,93012.84
2019-02-11T05:50:24.123Z,93010.31
2019-02-11T05:52:52.713Z,93018.75
2019-02-11T05:55:21.547Z,93024.59
2019-02-11T05:57:49.478Z,93030.05
2019-02-11T06:03:14.303Z,93033.84
2019-02-11T06:05:42.725Z,93049.84
2019-02-11T06:08:11.065Z,93043.56
2019-02-11T06:10:39.351Z,93047.78
2019-02-11T06:13:07.727Z,93049.84
2019-02-11T06:15:35.941Z,93049.81
2019-02-11T06:18:04.141Z,93061.20
2019-02-11T06:20:32.453Z,93062.44
2019-02-11T06:23:00.745Z,93075.52
2019-02-11T06:25:29.069Z,93085.16
2019-02-11T06:27:57.728Z,93082.23
2019-02-11T06:30:26.447Z,93091.86
2019-02-11T06:32:54.697Z,93086.84
2019-02-11T06:35:22.979Z,93104.91
2019-02-11T06:37:51.267Z,93103.71
2019-02-11T06:40:19.836Z,93110.42
2019-02-11T06:42:48.435Z,93113.80
2019-02-11T06:45:17.048Z,93128.55
2019-02-11T06:47:45.977Z,93125.19
2019-02-11T06:50:14.302Z,93134.83
2019-02-11T06:52:42.177Z,93121.86
2019-02-11T06:55:10.278Z,93134.86
2019-02-11T06:57:38.878Z,93134.42
2019-02-11T07:00:08.742Z,93148.28
2019-02-11T07:02:37.198Z,93152.06
2019-02-11T07:05:05.237Z,93163.02
2019-02-11T07:07:33.914Z,93173.55
2019-02-11T07:10:02.547Z,93179.45
2019-02-11T07:12:30.807Z,93190.81
2019-02-11T07:14:59.149Z,93197.94
2019-02-11T07:17:27.960Z,93202.97
2019-02-11T07:19:56.244Z,93202.55
2019-02-11T07:22:25.044Z,93214.75
2019-02-11T07:24:52.645Z,93216.41
2019-02-11T07:27:20.587Z,93224.80
2019-02-11T07:29:49.116Z,93233.69
2019-02-11T07:32:16.960Z,93226.11
2019-02-11T07:34:45.633Z,93227.32
2019-02-11T07:37:14.227Z,93237.03
2019-02-11T07:39:42.936Z,93244.18
2019-02-11T07:42:30.322Z,93251.33
2019-02-11T07:45:00.951Z,93263.52
2019-02-11T07:47:28.840Z,93258.91
2019-02-11T07:49:56.713Z,93266.48
2019-02-11T07:52:26.848Z,93268.15
2019-02-11T07:55:01.716Z,93265.19
2019-02-11T07:57:29.662Z,93283.30
2019-02-11T07:59:57.854Z,93282.86
2019-02-11T08:02:26.526Z,93285.00
2019-02-11T08:04:54.398Z,93296.34
2019-02-11T08:07:22.264Z,93299.31
2019-02-11T08:09:50.150Z,93306.84
2019-02-11T08:12:18.540Z,93319.92
2019-02-11T08:14:49.262Z,93323.70
2019-02-11T08:17:18.387Z,93335.50
2019-02-11T08:19:46.649Z,93345.16
2019-02-11T08:22:15.040Z,93335.90
2019-02-11T08:24:43.207Z,93336.30
2019-02-11T08:27:11.161Z,93345.55
2019-02-11T08:29:51.787Z,93351.45
2019-02-11T08:32:19.878Z,93357.34
2019-02-11T08:34:48.102Z,93370.37
2019-02-11T08:37:16.381Z,93362.37
2019-02-11T08:39:44.867Z,93356.52
2019-02-11T08:42:12.804Z,93367.02
2019-02-11T08:44:41.458Z,93372.06
2019-02-11T08:47:09.816Z,93389.31
2019-02-11T08:49:38.113Z,93382.16
2019-02-11T08:52:06.724Z,93394.75
2019-02-11T08:54:34.598Z,93396.42
2019-02-11T08:57:02.638Z,93395.13
2019-02-11T08:59:30.512Z,93393.05
2019-02-11T09:01:59.317Z,93408.63
2019-02-11T09:05:08.787Z,93418.77
2019-02-11T09:07:37.514Z,93420.01
2019-02-11T09:10:05.894Z,93427.16
2019-02-11T09:12:34.712Z,93419.19
2019-02-11T09:15:02.974Z,93439.34
2019-02-11T09:17:31.797Z,93435.56
2019-02-11T09:20:00.179Z,93443.97
2019-02-11T09:22:28.002Z,93446.91
2019-02-11T09:24:55.907Z,93447.76
2019-02-11T09:27:25.010Z,93451.94
2019-02-11T09:29:53.628Z,93454.45
2019-02-11T09:32:22.927Z,93464.50
2019-02-11T09:34:51.177Z,93467.47
2019-02-11T09:37:19.592Z,93475.89
2019-02-11T09:39:47.957Z,93477.94
2019-02-11T09:42:16.739Z,93480.05
2019-02-11T09:44:45.442Z,93492.66
2019-02-11T09:47:13.704Z,93490.13
2019-02-11T09:49:42.106Z,93494.77
2019-02-11T09:52:10.415Z,93500.26
2019-02-11T09:54:38.994Z,93503.22
2019-02-11T09:57:07.527Z,93522.16
2019-02-11T09:59:36.083Z,93517.52
2019-02-11T10:02:44.299Z,93533.09
2019-02-11T10:05:12.894Z,93537.30
2019-02-11T10:07:41.451Z,93542.78
2019-02-11T10:10:09.811Z,93539.38
2019-02-11T10:12:37.723Z,93536.43
2019-02-11T10:15:07.914Z,93545.22
2019-02-11T10:17:35.874Z,93540.98
2019-02-11T10:20:04.481Z,93549.44
2019-02-11T10:22:33.152Z,93554.48
2019-02-11T10:25:01.895Z,93547.65
2019-02-11T10:27:30.633Z,93556.50
2019-02-11T10:29:58.572Z,93552.30
2019-02-11T10:32:27.204Z,93566.21
2019-02-11T10:34:55.131Z,93574.23
2019-02-11T10:37:23.422Z,93567.48
2019-02-11T10:39:52.089Z,93574.63
2019-02-11T10:42:20.113Z,93575.89
2019-02-11T10:44:48.075Z,93576.67
2019-02-11T10:47:17.245Z,93589.69
2019-02-11T10:49:45.593Z,93602.34
2019-02-11T10:52:14.400Z,93592.98
2019-02-11T10:54:43.107Z,93600.90
2019-02-11T10:57:10.630Z,93606.77
2019-02-11T10:59:39.364Z,93605.91
2019-02-11T11:02:08.029Z,93602.55
2019-02-11T11:04:36.302Z,93598.72
2019-02-11T11:07:04.682Z,93610.17
2019-02-11T11:09:33.004Z,93613.58
2019-02-11T11:12:01.020Z,93616.98
2019-02-11T11:14:28.922Z,93608.18
2019-02-11T11:16:57.531Z,93627.56
2019-02-11T11:19:26.064Z,93623.41
2019-02-11T11:21:54.807Z,93625.06
2019-02-11T11:24:23.440Z,93627.16
2019-02-11T11:26:51.429Z,93622.55
2019-02-11T11:29:19.823Z,93633.47
2019-02-11T11:31:48.118Z,93638.08
2019-02-11T11:34:16.809Z,93646.45
2019-02-11T11:36:44.390Z,93645.66
2019-02-11T11:39:32.122Z,93642.70
2019-02-11T11:42:00.377Z,93650.30
2019-02-11T11:44:28.676Z,93662.97
2019-02-11T11:46:56.547Z,93663.84
2019-02-11T11:49:24.823Z,93669.31
2019-02-11T11:51:53.008Z,93668.06
2019-02-11T11:54:20.480Z,93667.61
2019-02-11T11:56:49.182Z,93674.37
2019-02-11T11:59:17.556Z,93677.80
2019-02-11T12:01:46.152Z,93683.23
2019-02-11T12:04:14.471Z,93683.23
2019-02-11T12:06:42.934Z,93696.77
2019-02-11T12:09:10.464Z,93690.90
2019-02-11T12:11:39.309Z,93698.46
2019-02-11T12:14:07.328Z,93695.03
2019-02-11T12:16:35.894Z,93697.06
2019-02-11T12:19:04.729Z,93701.27
2019-02-11T12:21:33.379Z,93702.55
2019-02-11T12:24:01.999Z,93704.25
2019-02-11T12:26:29.935Z,93706.78
2019-02-11T12:28:58.267Z,93709.36
2019-02-11T12:31:26.996Z,93714.83
2019-02-11T12:33:55.681Z,93711.86
2019-02-11T12:36:23.936Z,93709.30
2019-02-11T12:38:51.503Z,93701.98
2019-02-11T12:41:20.078Z,93704.55
2019-02-11T12:43:48.286Z,93711.76
2019-02-11T12:46:16.024Z,93714.36
2019-02-11T12:48:44.441Z,93708.50
2019-02-11T12:51:13.332Z,93713.19
2019-02-11T12:53:41.633Z,93728.77
2019-02-11T12:56:09.543Z,93731.31
2019-02-11T12:58:37.866Z,93746.49
2019-02-11T13:01:06.463Z,93740.98
2019-02-11T13:03:34.507Z,93730.84
2019-02-11T13:06:02.759Z,93734.41
2019-02-11T13:08:31.265Z,93733.71
2019-02-11T13:10:59.327Z,93731.81
2019-02-11T13:13:27.624Z,93738.54
2019-02-11T13:16:01.612Z,93739.54
2019-02-11T13:18:31.798Z,93740.05
2019-02-11T13:21:08.383Z,93744.78
2019-02-11T13:23:36.710Z,93744.08
2019-02-11T13:26:04.972Z,93753.38
2019-02-11T13:28:33.725Z,93757.23
2019-02-11T13:31:02.341Z,93760.69
2019-02-11T13:33:30.798Z,93767.49
2019-02-11T13:39:27.810Z,93788.55
2019-02-11T13:41:56.102Z,93788.91
2019-02-11T13:44:24.923Z,93788.83
2019-02-11T13:46:53.201Z,93783.69
2019-02-11T13:49:21.494Z,93784.86
2019-02-11T13:51:49.534Z,93790.73
2019-02-11T13:54:17.540Z,93794.11
2019-02-11T13:56:46.284Z,93785.69
2019-02-11T13:59:14.267Z,93791.13
2019-02-11T14:01:42.163Z,93792.01
2019-02-11T14:04:10.501Z,93803.46
2019-02-11T14:06:38.836Z,93808.98
2019-02-11T14:09:11.323Z,93808.97
2019-02-11T14:11:39.526Z,93812.37
2019-02-11T14:14:07.751Z,93820.00
2019-02-11T14:16:47.890Z,93816.09
2019-02-11T14:19:15.559Z,93823.67
2019-02-11T14:21:44.179Z,93824.88
2019-02-11T14:24:12.749Z,93829.09
2019-02-11T14:26:41.170Z,93824.91
2019-02-11T14:29:28.154Z,93836.83
2019-02-11T14:32:08.503Z,93843.27
2019-02-11T14:34:37.110Z,93852.13
2019-02-11T14:37:05.820Z,93864.41
2019-02-11T14:39:34.534Z,93858.06
2019-02-11T14:42:02.579Z,93867.30
2019-02-11T14:44:30.963Z,93860.95
2019-02-11T14:46:59.741Z,93865.52
2019-02-11T14:49:27.837Z,93869.30
2019-02-11T14:51:56.049Z,93868.48
2019-02-11T14:54:24.498Z,93877.76
2019-02-11T14:56:53.379Z,93882.88
2019-02-11T14:59:22.112Z,93888.39
2019-02-11T15:01:50.734Z,93897.29
2019-02-11T15:04:19.463Z,93888.03
2019-02-11T15:06:47.403Z,93890.98
2019-02-11T15:09:15.948Z,93891.81
2019-02-11T15:11:44.742Z,93901.56
2019-02-11T15:14:13.506Z,93912.51
2019-02-11T15:16:41.486Z,93915.00
2019-02-11T15:19:10.181Z,93917.50
2019-02-11T15:21:38.464Z,93921.71
2019-02-11T15:24:06.549Z,93923.34
2019-02-11T15:26:34.514Z,93931.82
2019-02-11T15:29:02.519Z,93929.76
2019-02-11T15:31:31.279Z,93929.77
2019-02-11T15:33:59.602Z,93931.48
2019-02-11T15:36:28.353Z,93941.61
2019-02-11T15:38:56.334Z,93936.98
2019-02-11T15:41:24.493Z,93947.12
2019-02-11T15:43:52.478Z,93953.45
2019-02-11T15:46:21.092Z,93959.34
2019-02-11T15:48:49.050Z,93965.66
2019-02-11T15:51:17.416Z,93972.84
2019-02-11T15:53:45.394Z,93965.02
2019-02-11T15:56:14.213Z,93977.78
2019-02-11T15:58:42.864Z,93970.97
2019-02-11T16:01:11.680Z,93974.95
2019-02-11T16:03:39.960Z,93981.25
2019-02-11T16:06:10.619Z,93992.21
2019-02-11T16:08:46.268Z,93997.37
2019-02-11T16:11:14.643Z,93996.78
2019-02-11T16:13:42.623Z,93998.12
2019-02-11T16:16:11.387Z,93996.88
2019-02-11T16:18:39.419Z,94007.01
2019-02-11T16:21:08.036Z,94017.57
2019-02-11T16:23:36.450Z,94028.09
2019-02-11T16:26:05.097Z,94025.56
2019-02-11T16:28:32.961Z,94037.36
2019-02-11T16:31:02.213Z,94039.00
2019-02-11T16:33:30.108Z,94034.36
2019-02-11T16:35:58.078Z,94043.19
2019-02-11T16:38:27.213Z,94046.50
2019-02-11T16:40:55.158Z,94053.22
2019-02-11T16:43:23.012Z,94052.75
2019-02-11T16:45:51.412Z,94055.27
2019-02-11T16:48:20.280Z,94070.88
2019-02-11T16:50:48.563Z,94070.91
2019-02-11T16:53:17.199Z,94067.14
2019-02-11T16:55:45.355Z,94073.45
2019-02-11T16:58:13.346Z,94074.25
2019-02-11T17:00:42.228Z,94064.13
2019-02-11T17:03:10.527Z,94073.80
2019-02-11T17:05:39.410Z,94084.68
2019-02-11T17:08:07.678Z,94099.80
2019-02-11T17:10:36.544Z,94103.99
2019-02-11T17:13:04.554Z,94099.72
2019-02-11T17:15:32.130Z,94101.01
2019-02-11T17:18:00.606Z,94106.47
2019-02-11T17:20:29.301Z,94121.99
2019-02-11T17:22:57.893Z,94128.75
2019-02-11T17:25:26.164Z,94133.41
2019-02-11T17:27:54.244Z,94148.63
2019-02-11T17:30:23.928Z,94145.19
2019-02-11T17:32:52.767Z,94135.59
2019-02-11T17:35:21.258Z,94139.05
2019-02-11T17:37:49.709Z,94144.53
2019-02-11T17:40:17.660Z,94137.38
2019-02-11T17:45:28.332Z,94142.03
2019-02-11T17:47:56.884Z,94136.95
2019-02-11T17:50:24.858Z,94131.04
2019-02-11T17:52:53.420Z,94141.98
2019-02-11T17:55:21.660Z,94164.27
2019-02-11T18:03:33.705Z,94168.19
2019-02-11T18:06:02.440Z,94165.21
2019-02-11T18:08:31.317Z,94165.67
2019-02-11T18:10:59.195Z,94168.59
2019-02-11T18:13:27.963Z,94181.27
2019-02-11T18:15:56.013Z,94184.23
2019-02-11T18:18:24.808Z,94185.09
2019-02-11T18:20:53.588Z,94190.15
2019-02-11T18:23:22.611Z,94203.58
2019-02-11T18:25:51.358Z,94197.70
2019-02-11T18:28:19.625Z,94206.16
2019-02-11T18:30:50.049Z,94222.56
2019-02-11T18:33:18.119Z,94225.91
2019-02-11T18:35:46.125Z,94233.91
2019-02-11T18:38:14.141Z,94221.70
2019-02-11T18:40:42.899Z,94233.42
2019-02-11T18:43:11.604Z,94238.90
2019-02-11T18:45:39.553Z,94240.19
2019-02-11T18:48:07.562Z,94244.32
2019-02-11T18:50:37.525Z,94245.19
2019-02-11T18:53:06.340Z,94247.72
2019-02-11T18:55:35.057Z,94251.95
2019-02-11T18:58:03.314Z,94249.00
2019-02-11T19:00:32.261Z,94259.14
2019-02-11T19:03:00.857Z,94259.91
2019-02-11T19:05:30.815Z,94259.11
2019-02-11T19:07:59.201Z,94267.54
2019-02-11T19:13:08.661Z,94265.46
2019-02-11T19:18:18.781Z,94277.25
2019-02-11T19:20:47.119Z,94278.14
2019-02-11T19:23:15.515Z,94275.20
2019-02-11T19:25:44.412Z,94287.39
2019-02-11T19:28:12.674Z,94285.28
2019-02-11T19:30:41.060Z,94290.75
2019-02-11T19:33:09.473Z,94297.91
2019-02-11T19:35:37.857Z,94305.08
2019-02-11T19:38:08.074Z,94317.74
2019-02-11T19:40:36.951Z,94327.43
2019-02-11T19:43:05.020Z,94323.13
2019-02-11T19:45:33.258Z,94329.87
2019-02-11T19:48:01.598Z,94324.42
2019-02-11T19:50:30.036Z,94330.69
2019-02-11T19:52:59.094Z,94340.38
2019-02-11T19:55:27.808Z,94342.90
2019-02-11T19:57:56.455Z,94349.22
2019-02-11T20:00:24.847Z,94344.64
2019-02-11T20:02:53.263Z,94345.91
2019-02-11T20:05:21.635Z,94353.06
2019-02-11T20:07:50.536Z,94355.59
2019-02-11T20:10:19.306Z,94358.97
2019-02-11T20:12:47.570Z,94353.45
2019-02-11T20:15:17.956Z,94366.52
2019-02-11T20:17:46.602Z,94355.11
2019-02-11T20:20:16.387Z,94358.48
2019-02-11T20:22:44.861Z,94356.38
2019-02-11T20:25:32.533Z,94365.25
2019-02-11T20:28:00.621Z,94381.25
2019-02-11T20:30:28.799Z,94383.75
2019-02-11T20:32:57.386Z,94385.02
2019-02-11T20:35:25.799Z,94387.16
2019-02-11T20:37:53.713Z,94383.30
2019-02-11T20:40:23.133Z,94398.42
2019-02-11T20:42:51.468Z,94398.52
2019-02-11T20:45:21.398Z,94403.58
2019-02-11T20:47:50.038Z,94406.53
2019-02-11T20:50:19.290Z,94396.80
2019-02-11T20:52:48.473Z,94398.91
2019-02-11T20:55:16.863Z,94402.70
2019-02-11T20:57:45.974Z,94406.91
2019-02-11T21:03:17.369Z,94412.81
2019-02-11T21:05:45.407Z,94420.39
2019-02-11T21:08:14.185Z,94423.77
2019-02-11T21:13:23.594Z,94440.11
2019-02-11T21:15:52.809Z,94444.60
2019-02-11T21:18:41.076Z,94450.19
2019-02-11T21:21:21.246Z,94447.47
2019-02-11T21:29:58.840Z,94452.58
2019-02-11T21:32:27.729Z,94455.01
2019-02-11T21:34:56.524Z,94463.86
2019-02-11T21:40:05.879Z,94469.61
2019-02-11T21:42:54.248Z,94471.61
2019-02-11T21:45:22.635Z,94469.47
2019-02-11T21:47:51.180Z,94470.95
2019-02-11T21:50:26.421Z,94478.11
2019-02-11T21:52:58.779Z,94476.48
2019-02-11T21:55:27.713Z,94473.99
2019-02-11T21:57:56.365Z,94479.00
2019-02-11T22:00:36.850Z,94471.09
2019-02-11T22:03:05.264Z,94466.47
2019-02-11T22:05:34.094Z,94457.16
2019-02-11T22:11:18.254Z,94442.30
2019-02-11T22:13:47.392Z,94448.90
2019-02-11T22:16:35.596Z,94440.54
2019-02-11T22:19:04.301Z,94440.20
2019-02-11T22:21:32.761Z,94441.89
2019-02-11T22:30:13.890Z,94458.25
2019-02-11T22:35:24.640Z,94454.17
2019-02-11T22:40:54.172Z,94471.00
2019-02-11T22:43:22.483Z,94480.55
2019-02-11T22:45:50.856Z,94488.95
2019-02-11T22:48:19.123Z,94494.89
2019-02-11T22:50:47.922Z,94508.78
2019-02-11T22:53:16.470Z,94493.16
2019-02-11T22:55:45.244Z,94499.52
2019-02-11T22:58:13.493Z,94499.61
2019-02-11T23:04:03.570Z,94493.50
2019-02-11T23:06:32.188Z,94506.12
2019-02-11T23:09:00.436Z,94517.04
2019-02-11T23:11:28.659Z,94527.83
2019-02-11T23:13:56.995Z,94521.52
2019-02-11T23:16:25.343Z,94526.95
2019-02-11T23:18:53.363Z,94531.89
2019-02-11T23:21:22.247Z,94541.19
2019-02-11T23:23:50.837Z,94548.34
2019-02-11T23:26:19.431Z,94564.32
2019-02-11T23:28:47.876Z,94573.20
2019-02-11T23:31:16.302Z,94573.09
2019-02-11T23:33:44.182Z,94563.53
2019-02-11T23:36:12.096Z,94563.16
2019-02-11T23:38:39.928Z,94564.00
2019-02-11T23:41:08.310Z,94565.64
2019-02-11T23:43:36.904Z,94562.22
2019-02-11T23:46:06.508Z,94557.32
2019-02-11T23:48:34.498Z,94566.16
2019-02-11T23:51:03.185Z,94564.79
2019-02-11T23:53:31.468Z,94567.37
2019-02-11T23:55:59.758Z,94560.69
2019-02-11T23:58:27.948Z,94562.42
